sensor_id;sensor_type;location;lat;lon;timestamp;P1;durP1;ratioP1;P2;durP2;ratioP2
52126;SDS011;38120;53.176;6.614;2023-10-08T00:00:44;1.58;;;0.68;;
52126;SDS011;38120;53.176;6.614;2023-10-08T00:03:21;2.03;;;0.60;;
52126;SDS011;38120;53.176;6.614;2023-10-08T00:05:47;1.63;;;0.55;;
52126;SDS011;38120;53.176;6.614;2023-10-08T00:08:14;1.13;;;0.30;;
52126;SDS011;38120;53.176;6.614;2023-10-08T00:10:42;4.38;;;0.30;;
52126;SDS011;38120;53.176;6.614;2023-10-08T00:13:09;3.25;;;0.40;;
52126;SDS011;38120;53.176;6.614;2023-10-08T00:15:38;1.52;;;0.43;;
52126;SDS011;38120;53.176;6.614;2023-10-08T00:18:17;0.40;;;0.30;;
52126;SDS011;38120;53.176;6.614;2023-10-08T00:20:47;0.75;;;0.20;;
52126;SDS011;38120;53.176;6.614;2023-10-08T00:23:21;3.17;;;0.35;;
52126;SDS011;38120;53.176;6.614;2023-10-08T00:25:50;0.68;;;0.40;;
52126;SDS011;38120;53.176;6.614;2023-10-08T00:28:17;1.17;;;0.30;;
52126;SDS011;38120;53.176;6.614;2023-10-08T00:30:43;0.55;;;0.22;;
52126;SDS011;38120;53.176;6.614;2023-10-08T00:33:09;1.38;;;0.50;;
52126;SDS011;38120;53.176;6.614;2023-10-08T00:35:38;1.50;;;0.15;;
52126;SDS011;38120;53.176;6.614;2023-10-08T00:38:06;1.98;;;0.30;;
52126;SDS011;38120;53.176;6.614;2023-10-08T00:40:45;1.95;;;0.30;;
52126;SDS011;38120;53.176;6.614;2023-10-08T00:43:28;1.23;;;0.28;;
52126;SDS011;38120;53.176;6.614;2023-10-08T00:45:59;1.45;;;0.40;;
52126;SDS011;38120;53.176;6.614;2023-10-08T00:48:28;1.98;;;0.28;;
52126;SDS011;38120;53.176;6.614;2023-10-08T00:51:02;1.85;;;0.43;;
52126;SDS011;38120;53.176;6.614;2023-10-08T00:56:17;1.77;;;0.40;;
52126;SDS011;38120;53.176;6.614;2023-10-08T00:58:45;1.13;;;0.30;;
52126;SDS011;38120;53.176;6.614;2023-10-08T01:01:18;0.82;;;0.50;;
52126;SDS011;38120;53.176;6.614;2023-10-08T01:03:46;1.85;;;0.47;;
52126;SDS011;38120;53.176;6.614;2023-10-08T01:06:14;2.38;;;0.40;;
52126;SDS011;38120;53.176;6.614;2023-10-08T01:08:46;1.45;;;0.40;;
52126;SDS011;38120;53.176;6.614;2023-10-08T01:11:21;3.45;;;0.60;;
52126;SDS011;38120;53.176;6.614;2023-10-08T01:13:56;1.33;;;0.47;;
52126;SDS011;38120;53.176;6.614;2023-10-08T01:16:24;2.08;;;0.40;;
52126;SDS011;38120;53.176;6.614;2023-10-08T01:18:52;1.77;;;0.40;;
52126;SDS011;38120;53.176;6.614;2023-10-08T01:21:19;1.20;;;0.25;;
52126;SDS011;38120;53.176;6.614;2023-10-08T01:24:05;0.63;;;0.32;;
52126;SDS011;38120;53.176;6.614;2023-10-08T01:29:04;3.80;;;0.52;;
52126;SDS011;38120;53.176;6.614;2023-10-08T01:31:34;1.70;;;0.30;;
52126;SDS011;38120;53.176;6.614;2023-10-08T01:34:02;1.52;;;0.50;;
52126;SDS011;38120;53.176;6.614;2023-10-08T01:36:30;6.15;;;0.85;;
52126;SDS011;38120;53.176;6.614;2023-10-08T01:38:56;1.63;;;0.45;;
52126;SDS011;38120;53.176;6.614;2023-10-08T01:43:55;3.15;;;0.50;;
52126;SDS011;38120;53.176;6.614;2023-10-08T01:46:24;3.15;;;0.90;;
52126;SDS011;38120;53.176;6.614;2023-10-08T01:48:50;0.85;;;0.30;;
52126;SDS011;38120;53.176;6.614;2023-10-08T01:51:24;2.25;;;0.57;;
52126;SDS011;38120;53.176;6.614;2023-10-08T01:53:54;4.00;;;0.60;;
52126;SDS011;38120;53.176;6.614;2023-10-08T01:56:23;1.70;;;0.77;;
52126;SDS011;38120;53.176;6.614;2023-10-08T01:58:49;2.55;;;0.68;;
52126;SDS011;38120;53.176;6.614;2023-10-08T02:01:19;5.25;;;0.57;;
52126;SDS011;38120;53.176;6.614;2023-10-08T02:03:45;1.10;;;0.70;;
52126;SDS011;38120;53.176;6.614;2023-10-08T02:06:11;3.17;;;0.73;;
52126;SDS011;38120;53.176;6.614;2023-10-08T02:08:37;1.85;;;0.70;;
52126;SDS011;38120;53.176;6.614;2023-10-08T02:11:03;4.00;;;1.15;;
52126;SDS011;38120;53.176;6.614;2023-10-08T02:13:29;2.22;;;0.60;;
52126;SDS011;38120;53.176;6.614;2023-10-08T02:18:21;4.25;;;1.08;;
52126;SDS011;38120;53.176;6.614;2023-10-08T02:20:50;3.38;;;0.77;;
52126;SDS011;38120;53.176;6.614;2023-10-08T02:23:16;3.05;;;0.65;;
52126;SDS011;38120;53.176;6.614;2023-10-08T02:28:09;3.13;;;0.70;;
52126;SDS011;38120;53.176;6.614;2023-10-08T02:30:40;3.75;;;0.85;;
52126;SDS011;38120;53.176;6.614;2023-10-08T02:33:07;4.32;;;1.00;;
52126;SDS011;38120;53.176;6.614;2023-10-08T02:35:43;2.25;;;0.68;;
52126;SDS011;38120;53.176;6.614;2023-10-08T02:38:11;2.30;;;0.82;;
52126;SDS011;38120;53.176;6.614;2023-10-08T02:40:46;4.78;;;1.08;;
52126;SDS011;38120;53.176;6.614;2023-10-08T02:45:43;4.05;;;0.90;;
52126;SDS011;38120;53.176;6.614;2023-10-08T02:48:12;4.07;;;0.80;;
52126;SDS011;38120;53.176;6.614;2023-10-08T02:50:38;4.40;;;1.10;;
52126;SDS011;38120;53.176;6.614;2023-10-08T02:53:05;1.75;;;0.63;;
52126;SDS011;38120;53.176;6.614;2023-10-08T02:55:39;0.88;;;0.47;;
52126;SDS011;38120;53.176;6.614;2023-10-08T02:58:12;2.88;;;1.48;;
52126;SDS011;38120;53.176;6.614;2023-10-08T03:00:44;1.77;;;0.68;;
52126;SDS011;38120;53.176;6.614;2023-10-08T03:03:17;2.67;;;1.30;;
52126;SDS011;38120;53.176;6.614;2023-10-08T03:05:44;3.20;;;0.80;;
52126;SDS011;38120;53.176;6.614;2023-10-08T03:08:13;1.83;;;0.73;;
52126;SDS011;38120;53.176;6.614;2023-10-08T03:10:46;2.33;;;0.70;;
52126;SDS011;38120;53.176;6.614;2023-10-08T03:13:16;4.93;;;0.80;;
52126;SDS011;38120;53.176;6.614;2023-10-08T03:15:42;3.72;;;0.90;;
52126;SDS011;38120;53.176;6.614;2023-10-08T03:18:32;3.22;;;0.88;;
52126;SDS011;38120;53.176;6.614;2023-10-08T03:21:06;1.20;;;0.63;;
52126;SDS011;38120;53.176;6.614;2023-10-08T03:24:07;2.58;;;0.93;;
52126;SDS011;38120;53.176;6.614;2023-10-08T03:26:54;1.60;;;0.60;;
52126;SDS011;38120;53.176;6.614;2023-10-08T03:29:31;3.20;;;1.23;;
52126;SDS011;38120;53.176;6.614;2023-10-08T03:32:13;2.78;;;0.88;;
52126;SDS011;38120;53.176;6.614;2023-10-08T03:34:46;3.58;;;1.55;;
52126;SDS011;38120;53.176;6.614;2023-10-08T03:37:17;2.13;;;0.85;;
52126;SDS011;38120;53.176;6.614;2023-10-08T03:39:54;3.88;;;1.08;;
52126;SDS011;38120;53.176;6.614;2023-10-08T03:42:32;1.25;;;0.73;;
52126;SDS011;38120;53.176;6.614;2023-10-08T03:45:05;2.28;;;0.60;;
52126;SDS011;38120;53.176;6.614;2023-10-08T03:47:39;4.85;;;1.08;;
52126;SDS011;38120;53.176;6.614;2023-10-08T03:50:11;2.45;;;1.08;;
52126;SDS011;38120;53.176;6.614;2023-10-08T03:52:41;3.00;;;0.82;;
52126;SDS011;38120;53.176;6.614;2023-10-08T03:55:09;2.17;;;0.82;;
52126;SDS011;38120;53.176;6.614;2023-10-08T03:57:43;7.40;;;1.50;;
52126;SDS011;38120;53.176;6.614;2023-10-08T04:00:13;2.35;;;0.90;;
52126;SDS011;38120;53.176;6.614;2023-10-08T04:02:53;2.97;;;1.00;;
52126;SDS011;38120;53.176;6.614;2023-10-08T04:05:23;5.82;;;1.52;;
52126;SDS011;38120;53.176;6.614;2023-10-08T04:07:57;2.90;;;1.05;;
52126;SDS011;38120;53.176;6.614;2023-10-08T04:10:23;2.95;;;1.40;;
52126;SDS011;38120;53.176;6.614;2023-10-08T04:13:04;2.80;;;0.95;;
52126;SDS011;38120;53.176;6.614;2023-10-08T04:15:34;3.08;;;1.17;;
52126;SDS011;38120;53.176;6.614;2023-10-08T04:18:06;2.80;;;1.10;;
52126;SDS011;38120;53.176;6.614;2023-10-08T04:20:36;3.95;;;1.25;;
52126;SDS011;38120;53.176;6.614;2023-10-08T04:23:24;4.72;;;1.48;;
52126;SDS011;38120;53.176;6.614;2023-10-08T04:25:49;2.83;;;1.27;;
52126;SDS011;38120;53.176;6.614;2023-10-08T04:28:19;4.32;;;1.20;;
52126;SDS011;38120;53.176;6.614;2023-10-08T04:30:46;2.30;;;1.25;;
52126;SDS011;38120;53.176;6.614;2023-10-08T04:33:13;4.93;;;1.50;;
52126;SDS011;38120;53.176;6.614;2023-10-08T04:35:43;3.25;;;1.40;;
52126;SDS011;38120;53.176;6.614;2023-10-08T04:38:15;4.38;;;1.42;;
52126;SDS011;38120;53.176;6.614;2023-10-08T04:40:44;3.80;;;1.23;;
52126;SDS011;38120;53.176;6.614;2023-10-08T04:43:23;3.20;;;1.17;;
52126;SDS011;38120;53.176;6.614;2023-10-08T04:45:59;2.47;;;1.08;;
52126;SDS011;38120;53.176;6.614;2023-10-08T04:48:30;4.00;;;1.58;;
52126;SDS011;38120;53.176;6.614;2023-10-08T04:51:02;4.47;;;1.20;;
52126;SDS011;38120;53.176;6.614;2023-10-08T04:53:29;5.97;;;1.10;;
52126;SDS011;38120;53.176;6.614;2023-10-08T04:56:00;4.70;;;1.33;;
52126;SDS011;38120;53.176;6.614;2023-10-08T04:58:38;2.58;;;1.10;;
52126;SDS011;38120;53.176;6.614;2023-10-08T05:01:12;3.58;;;1.48;;
52126;SDS011;38120;53.176;6.614;2023-10-08T05:04:03;3.90;;;1.42;;
52126;SDS011;38120;53.176;6.614;2023-10-08T05:06:30;3.30;;;1.10;;
52126;SDS011;38120;53.176;6.614;2023-10-08T05:09:21;4.75;;;1.35;;
52126;SDS011;38120;53.176;6.614;2023-10-08T05:11:50;2.75;;;1.35;;
52126;SDS011;38120;53.176;6.614;2023-10-08T05:14:21;5.18;;;1.20;;
52126;SDS011;38120;53.176;6.614;2023-10-08T05:16:57;4.10;;;1.35;;
52126;SDS011;38120;53.176;6.614;2023-10-08T05:19:35;4.20;;;1.58;;
52126;SDS011;38120;53.176;6.614;2023-10-08T05:22:04;4.57;;;1.38;;
52126;SDS011;38120;53.176;6.614;2023-10-08T05:24:49;5.40;;;1.20;;
52126;SDS011;38120;53.176;6.614;2023-10-08T05:27:33;6.05;;;1.45;;
52126;SDS011;38120;53.176;6.614;2023-10-08T05:30:10;4.05;;;1.58;;
52126;SDS011;38120;53.176;6.614;2023-10-08T05:32:41;4.07;;;1.48;;
52126;SDS011;38120;53.176;6.614;2023-10-08T05:35:26;3.92;;;1.40;;
52126;SDS011;38120;53.176;6.614;2023-10-08T05:38:10;8.98;;;1.92;;
52126;SDS011;38120;53.176;6.614;2023-10-08T05:40:56;3.63;;;1.35;;
52126;SDS011;38120;53.176;6.614;2023-10-08T05:51:35;4.63;;;1.27;;
52126;SDS011;38120;53.176;6.614;2023-10-08T05:54:15;4.35;;;1.27;;
52126;SDS011;38120;53.176;6.614;2023-10-08T05:56:54;8.93;;;1.60;;
52126;SDS011;38120;53.176;6.614;2023-10-08T05:59:37;6.57;;;1.20;;
52126;SDS011;38120;53.176;6.614;2023-10-08T06:02:22;9.02;;;1.73;;
52126;SDS011;38120;53.176;6.614;2023-10-08T06:04:54;6.60;;;1.23;;
52126;SDS011;38120;53.176;6.614;2023-10-08T06:07:41;4.47;;;1.30;;
52126;SDS011;38120;53.176;6.614;2023-10-08T06:10:25;6.07;;;1.65;;
52126;SDS011;38120;53.176;6.614;2023-10-08T06:13:13;4.25;;;1.45;;
52126;SDS011;38120;53.176;6.614;2023-10-08T06:15:55;5.97;;;1.35;;
52126;SDS011;38120;53.176;6.614;2023-10-08T06:18:26;7.38;;;1.48;;
52126;SDS011;38120;53.176;6.614;2023-10-08T06:21:06;5.00;;;1.30;;
52126;SDS011;38120;53.176;6.614;2023-10-08T06:23:40;6.97;;;1.58;;
52126;SDS011;38120;53.176;6.614;2023-10-08T06:26:07;7.10;;;1.85;;
52126;SDS011;38120;53.176;6.614;2023-10-08T06:28:37;9.13;;;1.98;;
52126;SDS011;38120;53.176;6.614;2023-10-08T06:31:04;3.25;;;1.55;;
52126;SDS011;38120;53.176;6.614;2023-10-08T06:33:32;7.50;;;1.25;;
52126;SDS011;38120;53.176;6.614;2023-10-08T06:36:01;6.60;;;1.38;;
52126;SDS011;38120;53.176;6.614;2023-10-08T06:38:34;5.25;;;1.58;;
52126;SDS011;38120;53.176;6.614;2023-10-08T06:41:01;5.55;;;1.23;;
52126;SDS011;38120;53.176;6.614;2023-10-08T06:43:49;8.68;;;1.73;;
52126;SDS011;38120;53.176;6.614;2023-10-08T06:46:16;9.60;;;1.67;;
52126;SDS011;38120;53.176;6.614;2023-10-08T06:48:46;6.60;;;1.60;;
52126;SDS011;38120;53.176;6.614;2023-10-08T06:51:14;6.75;;;1.70;;
52126;SDS011;38120;53.176;6.614;2023-10-08T06:53:43;8.00;;;1.80;;
52126;SDS011;38120;53.176;6.614;2023-10-08T06:56:14;9.23;;;1.55;;
52126;SDS011;38120;53.176;6.614;2023-10-08T06:58:41;8.88;;;1.77;;
52126;SDS011;38120;53.176;6.614;2023-10-08T07:01:13;9.13;;;1.63;;
52126;SDS011;38120;53.176;6.614;2023-10-08T07:03:47;4.55;;;1.38;;
52126;SDS011;38120;53.176;6.614;2023-10-08T07:06:17;10.57;;;1.58;;
52126;SDS011;38120;53.176;6.614;2023-10-08T07:08:51;5.82;;;1.63;;
52126;SDS011;38120;53.176;6.614;2023-10-08T07:11:20;7.20;;;1.80;;
52126;SDS011;38120;53.176;6.614;2023-10-08T07:13:47;4.47;;;1.48;;
52126;SDS011;38120;53.176;6.614;2023-10-08T07:16:13;5.68;;;1.50;;
52126;SDS011;38120;53.176;6.614;2023-10-08T07:18:42;6.38;;;1.52;;
52126;SDS011;38120;53.176;6.614;2023-10-08T07:21:20;5.97;;;1.25;;
52126;SDS011;38120;53.176;6.614;2023-10-08T07:23:54;4.82;;;0.95;;
52126;SDS011;38120;53.176;6.614;2023-10-08T07:26:28;4.55;;;1.42;;
52126;SDS011;38120;53.176;6.614;2023-10-08T07:29:05;7.18;;;1.50;;
52126;SDS011;38120;53.176;6.614;2023-10-08T07:31:35;5.75;;;1.90;;
52126;SDS011;38120;53.176;6.614;2023-10-08T07:34:02;7.20;;;1.80;;
52126;SDS011;38120;53.176;6.614;2023-10-08T07:36:41;7.03;;;1.70;;
52126;SDS011;38120;53.176;6.614;2023-10-08T07:39:12;7.72;;;2.05;;
52126;SDS011;38120;53.176;6.614;2023-10-08T07:42:05;7.05;;;1.80;;
52126;SDS011;38120;53.176;6.614;2023-10-08T07:44:31;9.00;;;1.75;;
52126;SDS011;38120;53.176;6.614;2023-10-08T07:47:00;4.72;;;1.30;;
52126;SDS011;38120;53.176;6.614;2023-10-08T07:49:30;8.32;;;1.85;;
52126;SDS011;38120;53.176;6.614;2023-10-08T07:51:57;6.25;;;1.58;;
52126;SDS011;38120;53.176;6.614;2023-10-08T07:54:24;6.25;;;1.60;;
52126;SDS011;38120;53.176;6.614;2023-10-08T07:56:54;5.65;;;1.63;;
52126;SDS011;38120;53.176;6.614;2023-10-08T07:59:27;10.70;;;2.03;;
52126;SDS011;38120;53.176;6.614;2023-10-08T08:01:53;3.72;;;1.48;;
52126;SDS011;38120;53.176;6.614;2023-10-08T08:04:20;8.00;;;2.15;;
52126;SDS011;38120;53.176;6.614;2023-10-08T08:06:49;6.68;;;1.42;;
52126;SDS011;38120;53.176;6.614;2023-10-08T08:09:16;5.68;;;2.35;;
52126;SDS011;38120;53.176;6.614;2023-10-08T08:11:46;10.02;;;1.77;;
52126;SDS011;38120;53.176;6.614;2023-10-08T08:14:13;7.68;;;1.60;;
52126;SDS011;38120;53.176;6.614;2023-10-08T08:16:45;10.40;;;1.95;;
52126;SDS011;38120;53.176;6.614;2023-10-08T08:19:14;8.15;;;1.88;;
52126;SDS011;38120;53.176;6.614;2023-10-08T08:21:41;8.05;;;1.80;;
52126;SDS011;38120;53.176;6.614;2023-10-08T08:24:13;7.78;;;2.95;;
52126;SDS011;38120;53.176;6.614;2023-10-08T08:26:54;6.88;;;1.63;;
52126;SDS011;38120;53.176;6.614;2023-10-08T08:29:33;5.07;;;1.23;;
52126;SDS011;38120;53.176;6.614;2023-10-08T08:32:09;10.65;;;1.88;;
52126;SDS011;38120;53.176;6.614;2023-10-08T08:34:41;8.43;;;1.60;;
52126;SDS011;38120;53.176;6.614;2023-10-08T08:37:13;4.45;;;1.17;;
52126;SDS011;38120;53.176;6.614;2023-10-08T08:39:39;11.32;;;1.63;;
52126;SDS011;38120;53.176;6.614;2023-10-08T08:42:06;8.38;;;1.42;;
52126;SDS011;38120;53.176;6.614;2023-10-08T08:47:04;8.73;;;2.05;;
52126;SDS011;38120;53.176;6.614;2023-10-08T08:49:35;7.65;;;1.27;;
52126;SDS011;38120;53.176;6.614;2023-10-08T08:52:02;11.05;;;1.75;;
52126;SDS011;38120;53.176;6.614;2023-10-08T08:54:29;6.75;;;1.58;;
52126;SDS011;38120;53.176;6.614;2023-10-08T08:56:59;12.80;;;1.83;;
52126;SDS011;38120;53.176;6.614;2023-10-08T08:59:29;8.18;;;1.60;;
52126;SDS011;38120;53.176;6.614;2023-10-08T09:04:28;7.68;;;1.70;;
52126;SDS011;38120;53.176;6.614;2023-10-08T09:06:55;6.57;;;2.38;;
52126;SDS011;38120;53.176;6.614;2023-10-08T09:09:22;6.78;;;1.52;;
52126;SDS011;38120;53.176;6.614;2023-10-08T09:11:56;5.70;;;1.38;;
52126;SDS011;38120;53.176;6.614;2023-10-08T09:14:23;9.32;;;1.65;;
52126;SDS011;38120;53.176;6.614;2023-10-08T09:16:52;7.35;;;1.30;;
52126;SDS011;38120;53.176;6.614;2023-10-08T09:19:19;9.60;;;1.65;;
52126;SDS011;38120;53.176;6.614;2023-10-08T09:24:36;10.65;;;2.03;;
52126;SDS011;38120;53.176;6.614;2023-10-08T09:27:05;13.75;;;1.80;;
52126;SDS011;38120;53.176;6.614;2023-10-08T09:29:31;6.07;;;1.30;;
52126;SDS011;38120;53.176;6.614;2023-10-08T09:32:04;6.03;;;1.17;;
52126;SDS011;38120;53.176;6.614;2023-10-08T09:34:31;4.85;;;1.50;;
52126;SDS011;38120;53.176;6.614;2023-10-08T09:39:30;6.78;;;1.27;;
52126;SDS011;38120;53.176;6.614;2023-10-08T09:42:02;6.38;;;1.88;;
52126;SDS011;38120;53.176;6.614;2023-10-08T09:44:31;7.90;;;1.88;;
52126;SDS011;38120;53.176;6.614;2023-10-08T09:49:31;8.38;;;1.60;;
52126;SDS011;38120;53.176;6.614;2023-10-08T09:52:00;7.30;;;1.90;;
52126;SDS011;38120;53.176;6.614;2023-10-08T09:54:28;4.65;;;1.52;;
52126;SDS011;38120;53.176;6.614;2023-10-08T09:56:58;9.57;;;1.55;;
52126;SDS011;38120;53.176;6.614;2023-10-08T09:59:25;4.97;;;1.67;;
52126;SDS011;38120;53.176;6.614;2023-10-08T10:01:54;5.30;;;1.42;;
52126;SDS011;38120;53.176;6.614;2023-10-08T10:04:24;7.53;;;1.80;;
52126;SDS011;38120;53.176;6.614;2023-10-08T10:06:50;4.80;;;1.38;;
52126;SDS011;38120;53.176;6.614;2023-10-08T10:09:19;5.35;;;1.77;;
52126;SDS011;38120;53.176;6.614;2023-10-08T10:11:50;5.43;;;1.17;;
52126;SDS011;38120;53.176;6.614;2023-10-08T10:14:18;6.95;;;2.05;;
52126;SDS011;38120;53.176;6.614;2023-10-08T10:19:56;8.95;;;2.00;;
52126;SDS011;38120;53.176;6.614;2023-10-08T10:22:29;6.07;;;1.30;;
52126;SDS011;38120;53.176;6.614;2023-10-08T10:24:56;7.43;;;2.10;;
52126;SDS011;38120;53.176;6.614;2023-10-08T10:27:23;4.20;;;1.65;;
52126;SDS011;38120;53.176;6.614;2023-10-08T10:29:49;6.82;;;1.63;;
52126;SDS011;38120;53.176;6.614;2023-10-08T10:32:15;7.53;;;2.60;;
52126;SDS011;38120;53.176;6.614;2023-10-08T10:34:44;3.58;;;1.20;;
52126;SDS011;38120;53.176;6.614;2023-10-08T10:37:17;5.07;;;1.20;;
52126;SDS011;38120;53.176;6.614;2023-10-08T10:39:54;6.18;;;1.52;;
52126;SDS011;38120;53.176;6.614;2023-10-08T10:42:21;6.80;;;1.45;;
52126;SDS011;38120;53.176;6.614;2023-10-08T10:44:52;6.82;;;1.60;;
52126;SDS011;38120;53.176;6.614;2023-10-08T10:47:22;4.38;;;1.52;;
52126;SDS011;38120;53.176;6.614;2023-10-08T10:49:51;5.07;;;1.70;;
52126;SDS011;38120;53.176;6.614;2023-10-08T10:52:23;4.22;;;1.17;;
52126;SDS011;38120;53.176;6.614;2023-10-08T10:55:09;5.70;;;1.83;;
52126;SDS011;38120;53.176;6.614;2023-10-08T10:57:40;6.18;;;1.80;;
52126;SDS011;38120;53.176;6.614;2023-10-08T11:00:07;6.47;;;2.05;;
52126;SDS011;38120;53.176;6.614;2023-10-08T11:02:53;8.10;;;1.73;;
52126;SDS011;38120;53.176;6.614;2023-10-08T11:05:25;6.45;;;1.85;;
52126;SDS011;38120;53.176;6.614;2023-10-08T11:07:57;4.22;;;1.33;;
52126;SDS011;38120;53.176;6.614;2023-10-08T11:10:32;4.03;;;1.50;;
52126;SDS011;38120;53.176;6.614;2023-10-08T11:12:59;7.10;;;1.80;;
52126;SDS011;38120;53.176;6.614;2023-10-08T11:15:29;7.15;;;1.70;;
52126;SDS011;38120;53.176;6.614;2023-10-08T11:18:11;3.25;;;1.23;;
52126;SDS011;38120;53.176;6.614;2023-10-08T11:20:40;8.38;;;1.95;;
52126;SDS011;38120;53.176;6.614;2023-10-08T11:23:10;6.85;;;1.85;;
52126;SDS011;38120;53.176;6.614;2023-10-08T11:25:58;6.28;;;1.45;;
52126;SDS011;38120;53.176;6.614;2023-10-08T11:28:28;7.03;;;1.58;;
52126;SDS011;38120;53.176;6.614;2023-10-08T11:30:54;5.85;;;1.98;;
52126;SDS011;38120;53.176;6.614;2023-10-08T11:33:24;5.78;;;2.10;;
52126;SDS011;38120;53.176;6.614;2023-10-08T11:36:00;7.28;;;1.50;;
52126;SDS011;38120;53.176;6.614;2023-10-08T11:38:28;5.80;;;1.00;;
52126;SDS011;38120;53.176;6.614;2023-10-08T11:41:13;9.38;;;2.30;;
52126;SDS011;38120;53.176;6.614;2023-10-08T11:43:50;7.65;;;1.42;;
52126;SDS011;38120;53.176;6.614;2023-10-08T11:46:36;9.32;;;2.58;;
52126;SDS011;38120;53.176;6.614;2023-10-08T11:49:05;4.97;;;1.83;;
52126;SDS011;38120;53.176;6.614;2023-10-08T11:53:59;7.77;;;1.50;;
52126;SDS011;38120;53.176;6.614;2023-10-08T11:56:30;6.93;;;1.42;;
52126;SDS011;38120;53.176;6.614;2023-10-08T11:58:57;7.85;;;1.70;;
52126;SDS011;38120;53.176;6.614;2023-10-08T12:01:23;10.07;;;1.73;;
52126;SDS011;38120;53.176;6.614;2023-10-08T12:03:50;6.20;;;1.75;;
52126;SDS011;38120;53.176;6.614;2023-10-08T12:08:46;4.40;;;1.60;;
52126;SDS011;38120;53.176;6.614;2023-10-08T12:11:18;5.28;;;1.30;;
52126;SDS011;38120;53.176;6.614;2023-10-08T12:13:48;11.77;;;1.80;;
52126;SDS011;38120;53.176;6.614;2023-10-08T12:16:15;7.97;;;1.27;;
52126;SDS011;38120;53.176;6.614;2023-10-08T12:18:47;10.05;;;2.10;;
52126;SDS011;38120;53.176;6.614;2023-10-08T12:21:17;3.95;;;1.50;;
52126;SDS011;38120;53.176;6.614;2023-10-08T12:23:42;11.85;;;1.80;;
52126;SDS011;38120;53.176;6.614;2023-10-08T12:26:10;6.85;;;1.80;;
52126;SDS011;38120;53.176;6.614;2023-10-08T12:28:41;6.53;;;1.88;;
52126;SDS011;38120;53.176;6.614;2023-10-08T12:31:10;8.40;;;1.52;;
52126;SDS011;38120;53.176;6.614;2023-10-08T12:33:40;7.63;;;1.50;;
52126;SDS011;38120;53.176;6.614;2023-10-08T12:36:08;6.43;;;1.23;;
52126;SDS011;38120;53.176;6.614;2023-10-08T12:38:39;3.13;;;1.38;;
52126;SDS011;38120;53.176;6.614;2023-10-08T12:41:09;4.10;;;1.40;;
52126;SDS011;38120;53.176;6.614;2023-10-08T12:43:43;3.38;;;1.30;;
52126;SDS011;38120;53.176;6.614;2023-10-08T12:46:17;7.57;;;1.60;;
52126;SDS011;38120;53.176;6.614;2023-10-08T12:48:47;5.95;;;1.23;;
52126;SDS011;38120;53.176;6.614;2023-10-08T12:51:17;7.80;;;2.47;;
52126;SDS011;38120;53.176;6.614;2023-10-08T12:56:28;5.75;;;1.33;;
52126;SDS011;38120;53.176;6.614;2023-10-08T12:59:01;7.07;;;1.70;;
52126;SDS011;38120;53.176;6.614;2023-10-08T13:01:36;5.57;;;1.20;;
52126;SDS011;38120;53.176;6.614;2023-10-08T13:04:06;8.07;;;1.80;;
52126;SDS011;38120;53.176;6.614;2023-10-08T13:06:32;8.07;;;1.85;;
52126;SDS011;38120;53.176;6.614;2023-10-08T13:09:02;6.55;;;1.85;;
52126;SDS011;38120;53.176;6.614;2023-10-08T13:11:37;7.65;;;1.58;;
52126;SDS011;38120;53.176;6.614;2023-10-08T13:14:04;7.10;;;1.20;;
52126;SDS011;38120;53.176;6.614;2023-10-08T13:16:30;6.60;;;1.35;;
52126;SDS011;38120;53.176;6.614;2023-10-08T13:18:57;12.63;;;1.52;;
52126;SDS011;38120;53.176;6.614;2023-10-08T13:21:26;6.88;;;1.92;;
52126;SDS011;38120;53.176;6.614;2023-10-08T13:23:56;6.05;;;1.58;;
52126;SDS011;38120;53.176;6.614;2023-10-08T13:26:24;9.20;;;1.67;;
52126;SDS011;38120;53.176;6.614;2023-10-08T13:28:56;7.70;;;1.92;;
52126;SDS011;38120;53.176;6.614;2023-10-08T13:31:23;10.55;;;1.77;;
52126;SDS011;38120;53.176;6.614;2023-10-08T13:33:50;4.57;;;1.30;;
52126;SDS011;38120;53.176;6.614;2023-10-08T13:36:17;7.85;;;1.80;;
52126;SDS011;38120;53.176;6.614;2023-10-08T13:38:43;6.65;;;1.42;;
52126;SDS011;38120;53.176;6.614;2023-10-08T13:41:11;9.32;;;1.65;;
52126;SDS011;38120;53.176;6.614;2023-10-08T13:43:41;6.45;;;1.38;;
52126;SDS011;38120;53.176;6.614;2023-10-08T13:46:10;8.85;;;1.77;;
52126;SDS011;38120;53.176;6.614;2023-10-08T13:48:38;8.50;;;1.17;;
52126;SDS011;38120;53.176;6.614;2023-10-08T13:51:05;4.40;;;1.33;;
52126;SDS011;38120;53.176;6.614;2023-10-08T13:53:38;5.85;;;1.25;;
52126;SDS011;38120;53.176;6.614;2023-10-08T13:56:12;7.47;;;1.98;;
52126;SDS011;38120;53.176;6.614;2023-10-08T13:58:39;3.88;;;1.40;;
52126;SDS011;38120;53.176;6.614;2023-10-08T14:01:11;5.32;;;1.40;;
52126;SDS011;38120;53.176;6.614;2023-10-08T14:03:50;11.48;;;2.28;;
52126;SDS011;38120;53.176;6.614;2023-10-08T14:06:19;6.05;;;1.10;;
52126;SDS011;38120;53.176;6.614;2023-10-08T14:08:45;8.20;;;1.83;;
52126;SDS011;38120;53.176;6.614;2023-10-08T14:11:21;2.45;;;1.08;;
52126;SDS011;38120;53.176;6.614;2023-10-08T14:13:51;8.05;;;1.83;;
52126;SDS011;38120;53.176;6.614;2023-10-08T14:16:21;7.03;;;1.83;;
52126;SDS011;38120;53.176;6.614;2023-10-08T14:18:49;4.93;;;1.42;;
52126;SDS011;38120;53.176;6.614;2023-10-08T14:21:19;9.05;;;2.22;;
52126;SDS011;38120;53.176;6.614;2023-10-08T14:23:49;7.70;;;1.73;;
52126;SDS011;38120;53.176;6.614;2023-10-08T14:26:17;4.93;;;1.38;;
52126;SDS011;38120;53.176;6.614;2023-10-08T14:28:47;6.55;;;1.33;;
52126;SDS011;38120;53.176;6.614;2023-10-08T14:31:19;4.63;;;1.20;;
52126;SDS011;38120;53.176;6.614;2023-10-08T14:33:49;5.68;;;1.33;;
52126;SDS011;38120;53.176;6.614;2023-10-08T14:36:30;7.03;;;2.05;;
52126;SDS011;38120;53.176;6.614;2023-10-08T14:39:14;9.30;;;1.83;;
52126;SDS011;38120;53.176;6.614;2023-10-08T14:41:58;6.35;;;1.65;;
52126;SDS011;38120;53.176;6.614;2023-10-08T14:44:43;6.40;;;1.50;;
52126;SDS011;38120;53.176;6.614;2023-10-08T14:47:09;6.85;;;1.50;;
52126;SDS011;38120;53.176;6.614;2023-10-08T14:49:35;5.07;;;1.65;;
52126;SDS011;38120;53.176;6.614;2023-10-08T14:52:00;5.88;;;1.50;;
52126;SDS011;38120;53.176;6.614;2023-10-08T14:54:29;3.95;;;1.00;;
52126;SDS011;38120;53.176;6.614;2023-10-08T14:56:56;6.57;;;1.40;;
52126;SDS011;38120;53.176;6.614;2023-10-08T14:59:22;5.00;;;2.22;;
52126;SDS011;38120;53.176;6.614;2023-10-08T15:04:15;5.82;;;1.80;;
52126;SDS011;38120;53.176;6.614;2023-10-08T15:06:41;5.63;;;1.25;;
52126;SDS011;38120;53.176;6.614;2023-10-08T15:09:08;5.38;;;1.20;;
52126;SDS011;38120;53.176;6.614;2023-10-08T15:11:34;5.40;;;2.00;;
52126;SDS011;38120;53.176;6.614;2023-10-08T15:14:04;6.60;;;1.45;;
52126;SDS011;38120;53.176;6.614;2023-10-08T15:16:38;5.68;;;1.20;;
52126;SDS011;38120;53.176;6.614;2023-10-08T15:19:04;4.05;;;1.42;;
52126;SDS011;38120;53.176;6.614;2023-10-08T15:23:59;8.00;;;1.88;;
52126;SDS011;38120;53.176;6.614;2023-10-08T15:26:35;7.75;;;1.50;;
52126;SDS011;38120;53.176;6.614;2023-10-08T15:29:01;3.40;;;1.15;;
52126;SDS011;38120;53.176;6.614;2023-10-08T15:31:28;4.72;;;1.35;;
52126;SDS011;38120;53.176;6.614;2023-10-08T15:33:54;4.28;;;1.38;;
52126;SDS011;38120;53.176;6.614;2023-10-08T15:36:19;6.18;;;1.75;;
52126;SDS011;38120;53.176;6.614;2023-10-08T15:38:45;4.93;;;1.55;;
52126;SDS011;38120;53.176;6.614;2023-10-08T15:41:11;4.30;;;1.60;;
52126;SDS011;38120;53.176;6.614;2023-10-08T15:43:42;4.47;;;1.27;;
52126;SDS011;38120;53.176;6.614;2023-10-08T15:46:09;5.47;;;1.30;;
52126;SDS011;38120;53.176;6.614;2023-10-08T15:48:35;8.85;;;1.95;;
52126;SDS011;38120;53.176;6.614;2023-10-08T15:51:02;5.72;;;1.50;;
52126;SDS011;38120;53.176;6.614;2023-10-08T15:53:28;7.00;;;1.67;;
52126;SDS011;38120;53.176;6.614;2023-10-08T15:55:56;5.93;;;1.60;;
52126;SDS011;38120;53.176;6.614;2023-10-08T15:58:22;5.07;;;1.63;;
52126;SDS011;38120;53.176;6.614;2023-10-08T16:00:48;5.80;;;1.30;;
52126;SDS011;38120;53.176;6.614;2023-10-08T16:03:13;7.55;;;2.22;;